Time;durP1;ratioP1;P1;durP2;ratioP2;P2;SDS_P1;SDS_P2;PMS_P1;PMS_P2;Temp;Humidity;BMP_temperature;BMP_pressure;BME280_temperature;BME280_humidity;BME280_pressure;Samples;Min_cycle;Max_cycle;Signal;HPM_P1;HPM_P2
2022/08/29 00:00:21;;;;;;;;;0.00;0.00;;;;;18.05;53.48;102243.72;5031213;28;8821;-66
2022/08/29 00:02:50;;;;;;;;;1.00;1.00;;;;;18.06;53.35;102247.28;5031425;28;8828;-66
2022/08/29 00:05:19;;;;;;;;;1.00;1.00;;;;;18.03;53.04;102249.41;5032278;28;9660;-65
2022/08/29 00:07:50;;;;;;;;;1.75;1.75;;;;;18.02;52.95;102236.78;5031480;28;9700;-65
2022/08/29 00:10:17;;;;;;;;;0.00;0.00;;;;;18.02;52.83;102239.53;5015109;28;9606;-66
2022/08/29 00:12:44;;;;;;;;;1.00;0.00;;;;;18.03;52.74;102233.06;5012624;28;9575;-65
2022/08/29 00:15:12;;;;;;;;;1.00;1.00;;;;;18.02;52.46;102235.97;5015918;28;8844;-66
2022/08/29 00:17:39;;;;;;;;;1.00;1.00;;;;;18.00;52.44;102229.91;5031357;28;8824;-66
2022/08/29 00:20:09;;;;;;;;;0.00;0.00;;;;;18.01;52.60;102228.84;5031509;28;8829;-66
2022/08/29 00:22:36;;;;;;;;;2.00;1.00;;;;;17.97;52.68;102228.44;5032104;28;8828;-65
2022/08/29 00:25:05;;;;;;;;;0.00;0.00;;;;;17.98;52.92;102229.25;5028794;28;8840;-67
2022/08/29 00:27:32;;;;;;;;;0.25;0.25;;;;;17.98;52.78;102221.09;5031080;28;8824;-68
2022/08/29 00:29:59;;;;;;;;;1.25;0.25;;;;;17.97;52.72;102219.41;5031256;28;8840;-66
2022/08/29 00:32:33;;;;;;;;;0.00;0.00;;;;;17.97;52.92;102219.41;5029983;28;8902;-65
2022/08/29 00:35:10;;;;;;;;;0.25;0.25;;;;;17.98;52.47;102235.53;5025268;28;8812;-66
2022/08/29 00:37:37;;;;;;;;;0.00;0.00;;;;;17.97;53.06;102238.50;5030812;28;8828;-65
2022/08/29 00:40:06;;;;;;;;;1.00;1.00;;;;;17.96;53.03;102247.72;5019781;28;8875;-66
2022/08/29 00:42:34;;;;;;;;;0.75;0.75;;;;;17.95;52.97;102241.44;5011489;28;9579;-64
2022/08/29 00:45:04;;;;;;;;;1.00;1.00;;;;;17.94;53.05;102241.63;5011363;28;8815;-65
2022/08/29 00:47:35;;;;;;;;;1.00;0.00;;;;;17.93;53.42;102248.13;5011314;28;8977;-66
2022/08/29 00:50:06;;;;;;;;;1.00;0.25;;;;;17.90;53.34;102246.66;5029561;28;8851;-66
2022/08/29 00:52:41;;;;;;;;;0.00;0.00;;;;;17.90;53.12;102240.38;5031275;28;8812;-66
2022/08/29 00:55:13;;;;;;;;;0.00;0.00;;;;;17.91;53.16;102247.50;5030024;28;8971;-66
2022/08/29 00:57:43;;;;;;;;;1.00;1.00;;;;;17.87;53.22;102241.63;5022356;28;8834;-65
2022/08/29 01:00:12;;;;;;;;;1.50;0.25;;;;;17.84;52.90;102246.66;5030900;28;8832;-66
2022/08/29 01:02:40;;;;;;;;;0.00;0.00;;;;;17.83;52.78;102250.44;5030804;28;8958;-65
2022/08/29 01:05:09;;;;;;;;;0.75;0.75;;;;;17.84;53.27;102255.66;5030613;28;9515;-66
2022/08/29 01:07:37;;;;;;;;;1.00;1.00;;;;;17.84;52.82;102258.38;5025519;28;8904;-66
2022/08/29 01:10:07;;;;;;;;;0.50;0.00;;;;;17.83;53.19;102251.28;5017753;28;8882;-65
2022/08/29 01:12:39;;;;;;;;;1.25;1.25;;;;;17.82;53.19;102254.19;5030940;28;8833;-65
2022/08/29 01:15:11;;;;;;;;;2.00;0.00;;;;;17.79;53.18;102256.28;5030937;28;8829;-65
2022/08/29 01:17:44;;;;;;;;;0.50;0.50;;;;;17.77;53.56;102261.09;5030411;28;9683;-66
2022/08/29 01:20:23;;;;;;;;;1.00;0.00;;;;;17.73;54.03;102258.97;5030545;28;8848;-64
2022/08/29 01:23:13;;;;;;;;;0.25;0.25;;;;;17.69;54.07;102258.53;5029378;28;9541;-65
2022/08/29 01:25:45;;;;;;;;;0.50;0.50;;;;;17.65;54.56;102254.56;5029932;28;9615;-64
2022/08/29 01:28:20;;;;;;;;;1.00;1.00;;;;;17.64;54.60;102255.59;5028782;28;8844;-65
2022/08/29 01:31:00;;;;;;;;;2.50;1.50;;;;;17.62;54.76;102251.41;5030001;28;9535;-66
2022/08/29 01:33:47;;;;;;;;;1.00;1.00;;;;;17.62;54.50;102248.69;5030369;28;8824;-66
2022/08/29 01:36:17;;;;;;;;;2.00;2.00;;;;;17.59;54.77;102249.13;5030123;28;9545;-65
2022/08/29 01:38:44;;;;;;;;;1.25;0.75;;;;;17.57;54.87;102253.91;5025272;28;8867;-64
2022/08/29 01:41:11;;;;;;;;;1.00;1.00;;;;;17.57;55.24;102259.34;5030037;28;8856;-66
2022/08/29 01:43:45;;;;;;;;;0.00;0.00;;;;;17.55;55.14;102263.13;5022717;28;8945;-65
2022/08/29 01:46:14;;;;;;;;;1.00;1.00;;;;;17.53;55.17;102259.75;5010142;28;8831;-65
2022/08/29 01:48:43;;;;;;;;;0.00;0.00;;;;;17.52;55.63;102266.25;5010156;28;8900;-65
2022/08/29 01:51:12;;;;;;;;;1.75;1.75;;;;;17.52;55.75;102257.25;5024355;28;8840;-66
2022/08/29 01:53:40;;;;;;;;;1.00;0.00;;;;;17.51;55.65;102259.16;5024497;28;8857;-64
2022/08/29 01:56:17;;;;;;;;;1.50;1.50;;;;;17.51;55.86;102267.31;5010073;28;8835;-65
2022/08/29 01:58:46;;;;;;;;;1.75;1.50;;;;;17.53;56.18;102264.38;5009203;28;8930;-66
2022/08/29 02:01:17;;;;;;;;;1.00;1.00;;;;;17.53;55.98;102257.03;5010234;28;8957;-65
2022/08/29 02:03:47;;;;;;;;;2.00;2.00;;;;;17.54;55.96;102253.28;5011575;28;8937;-65
2022/08/29 02:06:13;;;;;;;;;1.00;1.00;;;;;17.55;55.97;102254.97;5029685;28;8860;-63
2022/08/29 02:08:42;;;;;;;;;1.00;1.00;;;;;17.53;56.46;102246.16;5029680;28;8948;-67
2022/08/29 02:11:10;;;;;;;;;0.25;0.25;;;;;17.54;56.36;102249.69;5028348;28;8817;-67
2022/08/29 02:13:39;;;;;;;;;2.00;2.00;;;;;17.55;56.43;102251.41;5030045;28;8828;-66
2022/08/29 02:16:06;;;;;;;;;2.00;1.00;;;;;17.55;56.56;102251.41;5029924;28;8828;-66
2022/08/29 02:18:33;;;;;;;;;1.25;1.25;;;;;17.54;56.66;102244.25;5029741;28;8839;-65
2022/08/29 02:21:01;;;;;;;;;0.50;0.25;;;;;17.54;57.04;102246.97;5029658;28;8820;-65
2022/08/29 02:23:27;;;;;;;;;1.00;1.00;;;;;17.53;56.87;102245.31;5032475;28;8912;-65
2022/08/29 02:25:57;;;;;;;;;0.00;0.00;;;;;17.51;57.00;102250.97;5019312;28;8836;-65
2022/08/29 02:28:23;;;;;;;;;1.00;1.00;;;;;17.50;57.08;102252.03;5033280;28;8856;-65
2022/08/29 02:30:51;;;;;;;;;1.00;1.00;;;;;17.49;57.38;102249.50;5033604;28;8870;-64
2022/08/29 02:33:23;;;;;;;;;1.25;1.25;;;;;17.49;57.69;102246.78;5033455;28;8849;-64
2022/08/29 02:35:50;;;;;;;;;2.50;1.00;;;;;17.49;57.54;102244.88;5033398;28;8824;-64
2022/08/29 02:38:17;;;;;;;;;0.25;0.25;;;;;17.51;57.39;102250.97;5024489;28;8823;-65
2022/08/29 02:40:45;;;;;;;;;2.00;0.75;;;;;17.53;57.54;102256.19;5012333;28;8870;-67
2022/08/29 02:43:12;;;;;;;;;1.50;1.50;;;;;17.52;57.76;102249.91;5023927;28;8962;-67
2022/08/29 02:45:40;;;;;;;;;0.00;0.00;;;;;17.51;58.01;102248.25;5033378;28;8828;-65
2022/08/29 02:48:07;;;;;;;;;1.75;1.25;;;;;17.51;57.94;102241.97;5030913;28;8842;-66
2022/08/29 02:50:34;;;;;;;;;1.00;1.00;;;;;17.53;57.93;102245.31;5033480;28;8844;-66
2022/08/29 02:53:01;;;;;;;;;2.25;2.25;;;;;17.52;57.78;102244.47;5033160;28;8926;-65
2022/08/29 02:55:28;;;;;;;;;1.75;1.25;;;;;17.55;57.89;102248.69;5032878;28;8850;-66
2022/08/29 02:57:54;;;;;;;;;1.25;1.25;;;;;17.57;57.64;102243.03;5032655;28;8851;-63
2022/08/29 03:00:24;;;;;;;;;1.50;1.50;;;;;17.57;57.77;102245.75;5032889;28;8946;-65
2022/08/29 03:02:53;;;;;;;;;1.00;1.00;;;;;17.56;57.98;102253.06;5031051;28;8812;-66
2022/08/29 03:05:23;;;;;;;;;0.25;0.25;;;;;17.55;58.12;102254.97;5032058;28;8866;-65
2022/08/29 03:07:51;;;;;;;;;0.00;0.00;;;;;17.57;58.15;102249.31;5032572;28;8828;-65
2022/08/29 03:10:18;;;;;;;;;1.50;1.00;;;;;17.59;58.10;102257.28;5032484;28;8840;-65
2022/08/29 03:12:46;;;;;;;;;1.00;1.00;;;;;17.57;58.40;102249.31;5031370;28;8824;-65
2022/08/29 03:15:13;;;;;;;;;1.00;0.25;;;;;17.56;58.40;102247.63;5031725;28;8854;-66
2022/08/29 03:17:39;;;;;;;;;1.00;1.00;;;;;17.57;58.41;102249.31;5031225;28;8836;-67
2022/08/29 03:20:08;;;;;;;;;1.25;0.00;;;;;17.58;58.85;102252.84;5032493;28;8975;-67
2022/08/29 03:22:36;;;;;;;;;0.25;0.25;;;;;17.60;58.43;102250.78;5032559;28;8828;-65
2022/08/29 03:25:04;;;;;;;;;1.50;1.50;;;;;17.60;58.35;102257.06;5032465;28;8959;-67
2022/08/29 03:27:32;;;;;;;;;1.00;1.00;;;;;17.61;58.77;102255.16;5031592;28;8829;-67
2022/08/29 03:29:58;;;;;;;;;1.50;1.25;;;;;17.59;59.02;102247.22;5031418;28;8843;-67
2022/08/29 03:32:25;;;;;;;;;0.50;0.50;;;;;17.59;58.54;102247.22;5030668;28;8824;-67
2022/08/29 03:34:53;;;;;;;;;2.00;1.00;;;;;17.59;58.79;102244.50;5032391;28;8902;-67
2022/08/29 03:37:19;;;;;;;;;3.50;1.75;;;;;17.61;58.53;102247.00;5031938;28;8840;-67
2022/08/29 03:39:46;;;;;;;;;0.75;0.00;;;;;17.62;58.82;102244.06;5032442;28;8864;-66
2022/08/29 03:42:12;;;;;;;;;1.00;1.00;;;;;17.62;59.00;102237.78;5032049;28;8979;-67
2022/08/29 03:44:40;;;;;;;;;1.75;1.75;;;;;17.59;59.02;102230.88;5031081;28;8844;-67
2022/08/29 03:47:07;;;;;;;;;4.25;2.00;;;;;17.58;58.88;102231.91;5030767;28;8840;-66
2022/08/29 03:49:34;;;;;;;;;1.00;1.00;;;;;17.58;58.88;102231.91;5031587;28;9584;-67
2022/08/29 03:52:00;;;;;;;;;2.75;2.75;;;;;17.54;58.96;102223.34;5032046;28;8814;-66
2022/08/29 03:54:27;;;;;;;;;0.50;0.25;;;;;17.54;59.08;102231.50;5031820;28;8821;-67
2022/08/29 03:56:55;;;;;;;;;1.00;1.00;;;;;17.54;59.08;102228.78;5030622;28;9542;-67
2022/08/29 03:59:22;;;;;;;;;1.00;1.00;;;;;17.54;59.08;102222.47;5031496;28;8919;-67
2022/08/29 04:01:49;;;;;;;;;2.50;2.50;;;;;17.55;58.75;102218.72;5031430;28;9249;-67
2022/08/29 04:07:05;;;;;;;;;3.00;1.00;;;;;17.57;58.83;102222.06;5031260;28;8839;-67
2022/08/29 04:09:32;;;;;;;;;2.00;2.00;;;;;17.57;58.83;102224.78;5031789;28;8843;-66
2022/08/29 04:11:58;;;;;;;;;2.00;2.00;;;;;17.57;58.82;102216.63;5017929;28;8815;-67
2022/08/29 04:14:25;;;;;;;;;0.25;0.25;;;;;17.58;58.82;102222.91;5011930;28;8973;-66
2022/08/29 04:16:52;;;;;;;;;1.00;1.00;;;;;17.57;59.24;102224.78;5013809;28;8913;-67
2022/08/29 04:19:20;;;;;;;;;1.50;0.50;;;;;17.57;59.04;102224.78;5012237;28;8968;-67
2022/08/29 04:21:49;;;;;;;;;1.00;1.00;;;;;17.57;58.96;102219.34;5013278;28;8839;-67
2022/08/29 04:24:18;;;;;;;;;1.00;1.00;;;;;17.59;58.59;102219.16;5030316;28;8824;-64
2022/08/29 04:26:45;;;;;;;;;1.25;1.25;;;;;17.59;58.63;102225.44;5011654;28;8850;-68
2022/08/29 04:29:12;;;;;;;;;0.75;0.75;;;;;17.59;58.25;102219.16;5011969;28;8830;-67
2022/08/29 04:31:41;;;;;;;;;2.25;1.00;;;;;17.59;58.58;102228.16;5011797;28;8835;-66
2022/08/29 04:34:09;;;;;;;;;0.00;0.00;;;;;17.59;58.21;102219.16;5011844;28;8835;-66
2022/08/29 04:36:38;;;;;;;;;0.50;0.50;;;;;17.57;58.27;102227.53;5017742;28;8828;-67
2022/08/29 04:39:05;;;;;;;;;0.25;0.25;;;;;17.56;58.42;102214.97;5031242;28;8898;-67
2022/08/29 04:41:32;;;;;;;;;0.50;0.50;;;;;17.55;58.39;102219.56;5022528;28;8840;-67
2022/08/29 04:44:00;;;;;;;;;1.00;1.00;;;;;17.55;58.58;102218.72;5029923;28;9006;-66
2022/08/29 04:46:26;;;;;;;;;1.25;1.25;;;;;17.55;58.38;102227.72;5030223;28;8958;-66
2022/08/29 04:48:53;;;;;;;;;1.50;0.75;;;;;17.56;58.60;102231.28;5026701;28;8819;-66
2022/08/29 04:51:21;;;;;;;;;0.50;0.50;;;;;17.54;58.13;102234.22;5011351;28;8839;-64
2022/08/29 04:53:50;;;;;;;;;1.75;1.75;;;;;17.54;58.29;102233.38;5021037;28;8958;-67
2022/08/29 04:56:19;;;;;;;;;1.00;1.00;;;;;17.53;58.30;102243.41;5030917;28;8821;-67
2022/08/29 04:58:47;;;;;;;;;1.00;1.00;;;;;17.54;58.17;102244.25;5030808;28;9505;-66
2022/08/29 05:01:16;;;;;;;;;6.50;5.00;;;;;17.52;57.91;102238.19;5030632;28;8832;-66
2022/08/29 05:03:43;;;;;;;;;2.50;2.50;;;;;17.52;58.01;102238.19;5019172;28;8803;-67
2022/08/29 05:06:12;;;;;;;;;0.25;0.25;;;;;17.51;58.09;102236.53;5011180;28;8831;-66
2022/08/29 05:08:41;;;;;;;;;1.25;0.75;;;;;17.50;57.82;102234.81;5011045;28;8831;-64
2022/08/29 05:11:12;;;;;;;;;2.00;1.00;;;;;17.50;58.14;102243.00;5026734;28;8838;-66
2022/08/29 05:13:38;;;;;;;;;1.00;1.00;;;;;17.47;58.52;102241.53;5030912;28;8909;-66
2022/08/29 05:16:10;;;;;;;;;0.00;0.00;;;;;17.47;58.15;102238.81;5030005;28;8837;-66
2022/08/29 05:18:38;;;;;;;;;2.00;2.00;;;;;17.47;58.66;102248.88;5010561;28;8834;-66
2022/08/29 05:21:05;;;;;;;;;1.00;1.00;;;;;17.46;58.50;102248.03;5010723;28;8855;-65
2022/08/29 05:23:32;;;;;;;;;2.00;0.00;;;;;17.45;58.76;102257.22;5010657;28;8854;-64
2022/08/29 05:26:01;;;;;;;;;1.00;0.25;;;;;17.47;58.70;102257.03;5010500;28;8957;-64
2022/08/29 05:28:30;;;;;;;;;0.75;0.75;;;;;17.47;58.78;102254.31;5028703;28;8901;-65
2022/08/29 05:30:57;;;;;;;;;0.75;0.75;;;;;17.46;58.96;102258.94;5028912;28;8931;-66
2022/08/29 05:33:23;;;;;;;;;1.00;1.00;;;;;17.45;58.55;102259.13;5030244;28;8840;-66
2022/08/29 05:35:50;;;;;;;;;1.00;1.00;;;;;17.45;58.16;102259.13;5030435;28;8939;-66
2022/08/29 05:38:16;;;;;;;;;2.25;1.00;;;;;17.46;58.33;102258.94;5030501;28;8828;-66
2022/08/29 05:40:43;;;;;;;;;1.50;1.00;;;;;17.48;58.14;102264.16;5030508;28;8893;-65
2022/08/29 05:43:10;;;;;;;;;2.00;1.00;;;;;17.50;57.98;102259.34;5030274;28;8917;-66
2022/08/29 05:45:37;;;;;;;;;1.00;1.00;;;;;17.51;58.15;102250.97;5030712;28;8812;-65
2022/08/29 05:48:08;;;;;;;;;1.50;1.50;;;;;17.54;58.06;102255.16;5030075;28;8855;-66
2022/08/29 05:50:40;;;;;;;;;0.50;0.00;;;;;17.55;57.87;102260.41;5030196;28;8958;-65
2022/08/29 05:53:12;;;;;;;;;2.50;1.00;;;;;17.57;57.77;102262.91;5024149;28;9092;-65
2022/08/29 05:55:41;;;;;;;;;1.00;1.00;;;;;17.59;58.17;102263.56;5010183;28;8819;-67
2022/08/29 05:58:08;;;;;;;;;2.00;1.00;;;;;17.61;58.17;102261.44;5013024;28;9545;-66
2022/08/29 06:00:40;;;;;;;;;2.00;1.00;;;;;17.64;58.41;102268.38;5020507;28;9583;-66
2022/08/29 06:03:07;;;;;;;;;2.00;2.00;;;;;17.64;58.62;102268.38;5034197;28;8825;-66
2022/08/29 06:05:35;;;;;;;;;1.50;1.50;;;;;17.63;58.81;102270.28;5034539;28;8894;-66
2022/08/29 06:08:01;;;;;;;;;1.75;1.75;;;;;17.63;58.69;102278.44;5033479;28;8828;-67
2022/08/29 06:10:28;;;;;;;;;2.00;2.00;;;;;17.64;58.82;102279.28;5034247;28;8808;-67
2022/08/29 06:12:54;;;;;;;;;1.00;1.00;;;;;17.64;58.83;102279.28;5035718;28;8848;-66
2022/08/29 06:15:21;;;;;;;;;4.75;3.00;;;;;17.65;58.55;102276.34;5019929;28;8851;-66
2022/08/29 06:17:48;;;;;;;;;1.25;1.25;;;;;17.66;58.72;102275.31;5035139;28;8955;-67
2022/08/29 06:20:14;;;;;;;;;2.00;2.00;;;;;17.68;58.61;102275.94;5034167;28;8868;-66
2022/08/29 06:22:41;;;;;;;;;1.75;1.75;;;;;17.71;58.83;102277.41;5034180;28;8844;-67
2022/08/29 06:25:08;;;;;;;;;1.00;1.00;;;;;17.75;58.89;102281.44;5034302;28;8890;-65
2022/08/29 06:27:54;;;;;;;;;1.00;1.00;;;;;17.76;59.11;102281.22;5046360;28;8856;-67
2022/08/29 06:30:21;;;;;;;;;3.00;3.00;;;;;17.75;58.71;102281.44;5034670;28;8828;-66
2022/08/29 06:32:47;;;;;;;;;4.00;3.00;;;;;17.75;58.71;102281.44;5033185;28;8838;-66
2022/08/29 06:35:14;;;;;;;;;4.00;2.00;;;;;17.75;58.95;102281.44;5034507;28;8889;-67
2022/08/29 06:37:41;;;;;;;;;1.00;1.00;;;;;17.77;59.11;102282.88;5033034;28;8816;-67
2022/08/29 06:40:08;;;;;;;;;1.25;1.00;;;;;17.81;58.68;102283.31;5029576;28;8872;-66
2022/08/29 06:42:35;;;;;;;;;1.00;1.00;;;;;17.81;58.84;102272.41;5031750;28;8883;-67
2022/08/29 06:45:05;;;;;;;;;2.75;1.50;;;;;17.86;58.74;102277.25;5035051;28;8934;-67
2022/08/29 06:47:32;;;;;;;;;1.75;1.75;;;;;17.90;58.89;102278.50;5033875;28;8888;-67
2022/08/29 06:49:58;;;;;;;;;1.00;1.00;;;;;17.94;58.54;102283.31;5034852;28;8860;-66
2022/08/29 06:52:26;;;;;;;;;1.25;1.25;;;;;17.96;58.78;102285.84;5034482;28;8870;-66
2022/08/29 06:54:53;;;;;;;;;2.25;2.25;;;;;17.94;58.99;102285.22;5033892;28;8860;-66
2022/08/29 06:57:19;;;;;;;;;4.50;3.50;;;;;17.90;58.36;102290.22;5034467;28;8847;-66
2022/08/29 06:59:46;;;;;;;;;1.00;1.00;;;;;17.83;57.46;102291.31;5034700;28;9643;-65
2022/08/29 07:02:12;;;;;;;;;2.25;1.50;;;;;17.82;57.09;102282.25;5034673;28;8939;-65
2022/08/29 07:04:38;;;;;;;;;3.00;1.00;;;;;17.83;56.20;102280.41;5030723;28;8816;-66
2022/08/29 07:07:05;;;;;;;;;1.50;1.50;;;;;17.83;55.70;102280.41;5031363;28;8824;-66
2022/08/29 07:09:32;;;;;;;;;1.00;0.50;;;;;17.87;55.78;102282.50;5034652;28;8820;-66
2022/08/29 07:11:59;;;;;;;;;2.75;1.25;;;;;17.95;56.07;102284.19;5034586;28;8840;-66
2022/08/29 07:14:26;;;;;;;;;1.75;1.25;;;;;17.99;55.71;102285.44;5034655;28;8890;-65
2022/08/29 07:16:53;;;;;;;;;1.00;1.00;;;;;17.99;54.96;102272.66;5033357;28;8901;-66
2022/08/29 07:19:19;;;;;;;;;0.25;0.25;;;;;17.98;54.81;102270.13;5033151;28;8930;-66
2022/08/29 07:21:47;;;;;;;;;1.00;1.00;;;;;18.01;54.65;102280.63;5033500;28;8941;-66
2022/08/29 07:24:14;;;;;;;;;1.50;1.25;;;;;18.05;54.52;102290.06;5033941;28;8820;-66
2022/08/29 07:26:42;;;;;;;;;1.75;1.00;;;;;18.04;54.36;102283.78;5033033;28;9565;-66
2022/08/29 07:29:15;;;;;;;;;3.00;2.00;;;;;18.08;53.96;102283.34;5033429;28;8963;-66
2022/08/29 07:31:42;;;;;;;;;1.50;0.50;;;;;18.11;54.49;102283.78;5032358;28;8845;-65
2022/08/29 07:34:09;;;;;;;;;2.75;2.25;;;;;18.16;54.94;102292.16;5015683;28;8941;-66
2022/08/29 07:36:36;;;;;;;;;1.50;1.00;;;;;18.19;55.03;102293.59;5026691;28;8829;-66
2022/08/29 07:39:09;;;;;;;;;2.50;1.75;;;;;18.22;55.13;102291.31;5034277;28;8886;-66
2022/08/29 07:41:38;;;;;;;;;0.75;0.75;;;;;18.25;55.26;102285.44;5033634;28;8844;-66
2022/08/29 07:44:04;;;;;;;;;1.25;1.25;;;;;18.23;55.25;102279.38;5033934;28;8872;-66
2022/08/29 07:46:31;;;;;;;;;0.00;0.00;;;;;18.20;55.32;102282.50;5027195;28;8853;-65
2022/08/29 07:48:58;;;;;;;;;0.25;0.25;;;;;18.20;55.55;102285.25;5014718;28;9642;-66
2022/08/29 07:51:25;;;;;;;;;1.75;1.75;;;;;18.23;55.85;102286.69;5025621;28;8971;-66
2022/08/29 07:53:53;;;;;;;;;0.00;0.00;;;;;18.23;55.92;102289.41;5034371;28;8812;-66
2022/08/29 07:56:30;;;;;;;;;1.00;0.00;;;;;18.29;56.13;102292.16;5033645;28;8843;-65
2022/08/29 07:59:03;;;;;;;;;1.00;1.00;;;;;18.32;56.16;102295.53;5034239;28;8848;-65
2022/08/29 08:01:30;;;;;;;;;1.00;1.00;;;;;18.32;56.13;102290.91;5033518;28;8871;-66
2022/08/29 08:03:57;;;;;;;;;2.00;1.00;;;;;18.29;55.74;102291.31;5031658;28;8843;-65
2022/08/29 08:06:24;;;;;;;;;2.50;1.00;;;;;18.24;56.32;102288.38;5032823;28;8866;-64
2022/08/29 08:08:53;;;;;;;;;0.25;0.25;;;;;18.25;56.20;102284.59;5033391;28;8797;-65
2022/08/29 08:11:21;;;;;;;;;2.75;2.00;;;;;18.30;56.07;102284.81;5018013;28;8853;-67
2022/08/29 08:13:48;;;;;;;;;1.00;0.00;;;;;18.35;56.27;102295.06;5014025;28;8937;-66
2022/08/29 08:16:19;;;;;;;;;1.25;1.25;;;;;18.38;56.64;102287.31;5023589;28;8852;-66
2022/08/29 08:18:46;;;;;;;;;0.00;0.00;;;;;18.43;56.67;102292.13;5033408;28;8867;-65
2022/08/29 08:21:13;;;;;;;;;2.25;1.00;;;;;18.40;56.67;102281.69;5031223;28;8955;-65
2022/08/29 08:23:40;;;;;;;;;3.00;3.00;;;;;18.37;56.66;102284.81;5033176;28;8905;-66
2022/08/29 08:26:08;;;;;;;;;1.75;1.00;;;;;18.39;56.41;102283.56;5026156;28;8837;-67
2022/08/29 08:28:35;;;;;;;;;0.75;0.75;;;;;18.41;56.41;102277.88;5032782;28;8990;-64
2022/08/29 08:31:05;;;;;;;;;1.75;1.25;;;;;18.41;56.40;102278.72;5033091;28;8890;-68
2022/08/29 08:33:34;;;;;;;;;1.00;1.00;;;;;18.44;55.43;102280.22;5033729;28;8843;-66
2022/08/29 08:36:03;;;;;;;;;3.00;2.00;;;;;18.44;55.52;102285.66;5032938;28;8976;-65
2022/08/29 08:38:30;;;;;;;;;0.00;0.00;;;;;18.48;55.79;102290.47;5029662;28;8887;-66
2022/08/29 08:41:07;;;;;;;;;1.75;1.75;;;;;18.52;55.74;102285.44;5035511;28;8856;-65
2022/08/29 08:43:47;;;;;;;;;1.75;1.75;;;;;18.53;55.71;102289.84;5032654;28;8832;-66
2022/08/29 08:46:14;;;;;;;;;1.25;1.25;;;;;18.49;55.59;102294.88;5030752;28;8848;-66
2022/08/29 08:48:42;;;;;;;;;2.00;2.00;;;;;18.53;55.80;102287.09;5027699;28;8815;-65
2022/08/29 08:51:22;;;;;;;;;1.25;1.25;;;;;18.61;55.81;102288.78;5021188;28;8897;-66
2022/08/29 08:53:53;;;;;;;;;1.50;1.50;;;;;18.65;55.24;102282.69;5032632;28;8891;-66
2022/08/29 08:56:42;;;;;;;;;1.50;1.50;;;;;18.69;55.11;102285.81;5022679;28;8888;-66
2022/08/29 08:59:15;;;;;;;;;1.75;1.25;;;;;18.70;55.21;102287.53;5032028;28;8836;-65
2022/08/29 09:02:01;;;;;;;;;3.75;3.00;;;;;18.71;55.33;102291.91;5030168;28;8844;-65
2022/08/29 09:04:58;;;;;;;;;2.00;2.00;;;;;18.73;54.85;102298.84;5032187;28;8812;-66
2022/08/29 09:07:56;;;;;;;;;2.00;2.00;;;;;18.78;55.40;102301.78;5017679;28;9622;-66
2022/08/29 09:10:39;;;;;;;;;1.50;1.50;;;;;18.82;55.48;102310.38;5030962;28;8852;-65
2022/08/29 09:13:45;;;;;;;;;1.75;1.75;;;;;18.87;55.35;102309.72;5029693;28;8836;-65
2022/08/29 09:16:21;;;;;;;;;1.50;1.50;;;;;18.86;55.44;102308.06;5029910;28;9522;-66
2022/08/29 09:18:51;;;;;;;;;0.50;0.50;;;;;18.87;55.82;102307.00;5031089;28;8828;-66
2022/08/29 09:21:22;;;;;;;;;1.50;1.50;;;;;18.86;56.16;102318.97;5030864;28;8844;-65
2022/08/29 09:24:14;;;;;;;;;1.75;1.00;;;;;18.87;56.67;102315.19;5031325;28;8816;-65
2022/08/29 09:26:41;;;;;;;;;3.00;2.00;;;;;18.81;56.81;102310.59;5045722;28;8836;-65
2022/08/29 09:29:08;;;;;;;;;3.00;1.00;;;;;18.80;56.87;102307.03;5011422;28;8946;-65
2022/08/29 09:31:35;;;;;;;;;2.25;2.00;;;;;18.78;56.82;102317.31;5024075;28;8844;-66
2022/08/29 09:34:11;;;;;;;;;2.00;1.00;;;;;18.76;56.83;102319.41;5030821;28;8906;-66
2022/08/29 09:36:43;;;;;;;;;1.75;1.75;;;;;18.73;56.92;102319.84;5030640;28;8832;-66
2022/08/29 09:39:21;;;;;;;;;3.00;2.00;;;;;18.72;56.95;102320.91;5031150;28;8843;-66
2022/08/29 09:41:54;;;;;;;;;2.00;2.00;;;;;18.72;57.12;102323.63;5020602;28;8925;-66
2022/08/29 09:44:28;;;;;;;;;1.00;1.00;;;;;18.70;57.41;102322.97;5011580;28;8819;-66
2022/08/29 09:47:25;;;;;;;;;3.50;1.50;;;;;18.70;57.43;102321.09;5025904;28;8836;-66
2022/08/29 09:50:03;;;;;;;;;2.00;2.00;;;;;18.71;57.27;102321.94;5030583;28;9643;-66
2022/08/29 09:52:31;;;;;;;;;1.25;1.25;;;;;18.72;57.40;102321.72;5029541;28;8821;-65
2022/08/29 09:55:26;;;;;;;;;1.50;1.25;;;;;18.74;57.47;102319.63;5029838;28;8963;-66
2022/08/29 09:58:25;;;;;;;;;1.00;1.00;;;;;18.78;57.69;102318.13;5009378;28;8889;-65
2022/08/29 10:01:04;;;;;;;;;2.00;2.00;;;;;18.84;57.35;102312.88;5029551;28;9518;-66
2022/08/29 10:03:37;;;;;;;;;2.00;1.00;;;;;18.85;57.41;102309.94;5045974;28;8918;-66
2022/08/29 10:06:21;;;;;;;;;1.00;1.00;;;;;18.90;57.06;102314.75;5030724;28;8836;-67
2022/08/29 10:09:27;;;;;;;;;3.00;2.00;;;;;18.91;57.08;102311.81;5030316;28;8829;-67
2022/08/29 10:12:11;;;;;;;;;2.75;1.00;;;;;18.93;57.64;102319.81;5030832;28;8836;-67
2022/08/29 10:15:07;;;;;;;;;1.25;1.25;;;;;18.95;57.89;102317.69;5015549;28;9537;-66
2022/08/29 10:20:51;;;;;;;;;2.00;1.50;;;;;19.02;58.06;102308.44;5014728;28;8840;-67
2022/08/29 10:23:36;;;;;;;;;2.00;2.00;;;;;19.09;58.05;102310.31;5030835;28;8820;-68
2022/08/29 10:26:13;;;;;;;;;1.00;0.75;;;;;19.09;58.03;102313.88;5031147;28;8954;-66
2022/08/29 10:28:47;;;;;;;;;1.50;1.50;;;;;19.10;57.57;102312.81;5012792;28;8937;-66
2022/08/29 10:31:31;;;;;;;;;1.00;1.00;;;;;19.05;57.38;102312.63;5021366;28;8828;-66
2022/08/29 10:34:32;;;;;;;;;4.00;2.50;;;;;19.01;57.40;102305.91;5031790;28;8828;-66
2022/08/29 10:37:16;;;;;;;;;2.75;2.75;;;;;19.08;56.86;102305.88;5031517;28;8836;-66
2022/08/29 10:40:08;;;;;;;;;2.75;1.25;;;;;19.17;56.46;102305.44;5030892;28;8934;-65
2022/08/29 10:42:38;;;;;;;;;1.75;1.00;;;;;19.20;56.03;102307.75;5025765;28;8910;-66
2022/08/29 10:45:18;;;;;;;;;2.00;2.00;;;;;19.15;56.15;102301.25;5035476;28;8850;-65
2022/08/29 10:48:03;;;;;;;;;2.00;1.00;;;;;19.15;56.47;102301.25;5015013;28;8835;-65
2022/08/29 10:50:44;;;;;;;;;2.00;1.00;;;;;19.18;56.26;102298.91;5017828;28;8828;-66
2022/08/29 10:53:23;;;;;;;;;2.00;1.00;;;;;19.17;56.42;102302.72;5017593;28;8843;-66
2022/08/29 10:55:57;;;;;;;;;1.50;0.50;;;;;19.16;56.42;102317.44;5021017;28;9577;-65
2022/08/29 10:59:12;;;;;;;;;3.00;1.75;;;;;19.19;56.10;102313.41;5034672;28;8829;-65
2022/08/29 11:01:53;;;;;;;;;3.25;1.00;;;;;19.17;55.74;102305.44;5032324;28;8834;-64
2022/08/29 11:04:33;;;;;;;;;3.75;1.75;;;;;19.15;56.28;102315.72;5035261;28;8839;-66
2022/08/29 11:07:15;;;;;;;;;1.00;1.00;;;;;19.22;56.20;102311.09;5048648;28;8829;-66
2022/08/29 11:09:46;;;;;;;;;1.00;1.00;;;;;19.23;55.76;102301.84;5034891;28;9580;-65
2022/08/29 11:12:39;;;;;;;;;1.00;1.00;;;;;19.29;55.56;102302.03;5034274;28;8840;-66
2022/08/29 11:15:40;;;;;;;;;2.00;2.00;;;;;19.33;55.54;102297.84;5034461;28;8816;-66
2022/08/29 11:18:17;;;;;;;;;2.00;2.00;;;;;19.34;55.26;102303.06;5014498;28;8831;-66
2022/08/29 11:20:54;;;;;;;;;0.25;0.00;;;;;19.32;55.35;102299.69;5021729;28;8915;-67
2022/08/29 11:23:39;;;;;;;;;2.00;1.00;;;;;19.35;55.47;102291.06;5034227;28;8833;-65
2022/08/29 11:26:44;;;;;;;;;1.00;1.00;;;;;19.34;54.88;102305.78;5033471;28;8848;-66
2022/08/29 11:29:36;;;;;;;;;1.00;1.00;;;;;19.35;55.22;102295.69;5034080;28;8812;-66
2022/08/29 11:32:30;;;;;;;;;0.25;0.25;;;;;19.42;55.08;102294.63;5033920;28;8816;-65
2022/08/29 11:35:19;;;;;;;;;2.00;1.75;;;;;19.47;55.20;102294.78;5023783;28;8858;-65
2022/08/29 11:38:01;;;;;;;;;1.00;1.00;;;;;19.55;54.88;102290.97;5012527;28;8913;-66
2022/08/29 11:40:45;;;;;;;;;1.25;1.25;;;;;19.66;54.52;102294.94;5017495;28;8848;-66
2022/08/29 11:43:21;;;;;;;;;3.00;1.00;;;;;19.75;53.93;102290.91;5033755;28;8840;-66
2022/08/29 11:46:06;;;;;;;;;0.25;0.25;;;;;19.83;53.17;102287.91;5033582;28;8821;-66
2022/08/29 11:48:40;;;;;;;;;1.00;1.00;;;;;19.92;52.54;102286.56;5032939;28;8836;-66
2022/08/29 11:51:36;;;;;;;;;1.50;1.00;;;;;19.95;51.74;102282.56;5034131;28;8848;-66
2022/08/29 11:54:38;;;;;;;;;1.00;1.00;;;;;19.94;51.42;102289.94;5034174;28;8832;-67
2022/08/29 11:57:05;;;;;;;;;3.75;1.25;;;;;20.00;52.04;102286.28;5033159;28;9624;-67
2022/08/29 11:59:49;;;;;;;;;1.25;1.25;;;;;20.07;52.09;102283.50;5034011;28;8890;-67
2022/08/29 12:02:31;;;;;;;;;2.00;2.00;;;;;20.16;51.99;102289.53;5030062;28;9512;-66